Time;durP1;ratioP1;P1;durP2;ratioP2;P2;SDS_P1;SDS_P2;PMS_P1;PMS_P2;Temp;Humidity;BMP_temperature;BMP_pressure;BME280_temperature;BME280_humidity;BME280_pressure;Samples;Min_cycle;Max_cycle;Signal;HPM_P1;HPM_P2
2021/11/27 00:02:06;;;;;;;25.30;15.10;;;2.80;99.90;;;;;;5070780;28;20185;-58
2021/11/27 00:04:31;;;;;;;26.27;16.73;;;2.80;99.90;;;;;;5071119;28;20257;-59
2021/11/27 00:06:57;;;;;;;26.77;17.30;;;2.80;99.90;;;;;;5051712;28;20543;-51
2021/11/27 00:09:23;;;;;;;29.23;17.53;;;2.80;99.90;;;;;;5071847;28;20196;-56
2021/11/27 00:11:48;;;;;;;26.67;15.93;;;2.90;99.90;;;;;;5071014;28;20177;-59
2021/11/27 00:14:14;;;;;;;26.00;15.90;;;2.90;99.90;;;;;;5071166;28;20209;-59
2021/11/27 00:16:41;;;;;;;24.07;15.00;;;2.90;99.90;;;;;;5070951;28;20201;-59
2021/11/27 00:19:11;;;;;;;25.15;16.00;;;2.90;99.90;;;;;;5070892;28;20447;-59
2021/11/27 00:21:38;;;;;;;24.20;13.73;;;2.90;99.90;;;;;;5071573;28;20150;-58
2021/11/27 00:24:04;;;;;;;25.00;14.75;;;2.90;99.90;;;;;;5070311;28;20231;-59
2021/11/27 00:26:30;;;;;;;22.23;14.87;;;2.90;99.90;;;;;;5071103;28;20266;-59
2021/11/27 00:28:56;;;;;;;23.80;15.20;;;2.90;99.90;;;;;;5067837;28;20436;-59
2021/11/27 00:31:25;;;;;;;23.00;14.67;;;2.90;99.90;;;;;;5069765;28;20190;-58
2021/11/27 00:33:51;;;;;;;25.67;14.68;;;2.80;99.90;;;;;;5069966;28;20323;-59
2021/11/27 00:36:17;;;;;;;23.25;14.68;;;2.80;99.90;;;;;;5071498;28;20818;-58
2021/11/27 00:38:43;;;;;;;25.10;15.55;;;2.80;99.90;;;;;;5070789;28;20178;-53
2021/11/27 00:41:11;;;;;;;25.45;15.10;;;2.70;99.90;;;;;;5070491;28;20642;-59
2021/11/27 00:43:38;;;;;;;28.67;17.30;;;2.70;99.90;;;;;;5069957;28;20251;-59
2021/11/27 00:46:04;;;;;;;27.17;15.45;;;2.60;99.90;;;;;;5070470;28;20173;-58
2021/11/27 00:48:30;;;;;;;29.57;16.07;;;2.60;99.90;;;;;;5070241;28;20196;-58
2021/11/27 00:51:04;;;;;;;22.80;14.20;;;2.50;99.90;;;;;;5071085;28;20763;-59
2021/11/27 00:53:30;;;;;;;26.55;15.10;;;2.50;99.90;;;;;;5070025;28;20244;-58
2021/11/27 00:55:56;;;;;;;24.05;15.48;;;2.50;99.90;;;;;;5067739;28;20209;-58
2021/11/27 00:58:22;;;;;;;27.33;16.47;;;2.40;99.90;;;;;;5051565;28;20185;-58
2021/11/27 01:00:56;;;;;;;27.02;16.50;;;2.30;99.90;;;;;;5070779;28;20564;-58
2021/11/27 01:03:24;;;;;;;27.00;15.73;;;2.20;99.90;;;;;;5061654;28;20188;-59
2021/11/27 01:05:50;;;;;;;28.27;16.55;;;2.20;99.90;;;;;;5075816;28;20213;-59
2021/11/27 01:08:16;;;;;;;27.15;15.35;;;2.10;99.90;;;;;;5069859;28;20186;-57
2021/11/27 01:10:50;;;;;;;28.30;16.52;;;2.10;99.90;;;;;;5068928;28;20193;-57
2021/11/27 01:13:16;;;;;;;27.67;14.90;;;2.00;99.90;;;;;;5060014;28;20190;-57
2021/11/27 01:15:43;;;;;;;27.98;15.32;;;2.00;99.90;;;;;;5083520;28;20197;-59
2021/11/27 01:18:09;;;;;;;25.70;15.70;;;2.00;99.90;;;;;;5068227;28;20185;-59
2021/11/27 01:20:44;;;;;;;25.52;15.45;;;2.00;99.90;;;;;;5070488;28;20173;-58
2021/11/27 01:23:11;;;;;;;24.17;14.65;;;2.00;99.90;;;;;;5069975;28;20209;-58
2021/11/27 01:25:37;;;;;;;30.85;15.82;;;2.00;99.90;;;;;;5076026;28;20177;-56
2021/11/27 01:28:03;;;;;;;26.15;15.43;;;2.00;99.90;;;;;;5073448;28;20237;-58
2021/11/27 01:30:28;;;;;;;27.85;15.68;;;2.00;99.90;;;;;;5073424;28;20198;-57
2021/11/27 01:32:54;;;;;;;28.00;16.13;;;2.10;99.90;;;;;;5070331;28;20182;-59
2021/11/27 01:35:20;;;;;;;25.30;15.07;;;2.00;99.90;;;;;;5077753;28;20250;-58
2021/11/27 01:37:46;;;;;;;26.23;15.50;;;2.10;99.90;;;;;;5074698;28;20789;-59
2021/11/27 01:40:16;;;;;;;25.88;14.10;;;2.10;99.90;;;;;;5087217;28;20492;-58
2021/11/27 01:42:42;;;;;;;22.15;14.75;;;2.10;99.90;;;;;;5071696;28;20217;-58
2021/11/27 01:45:10;;;;;;;24.65;14.82;;;2.10;99.90;;;;;;5069825;28;20178;-57
2021/11/27 01:47:37;;;;;;;24.15;13.88;;;2.00;99.90;;;;;;5071419;28;20201;-58
2021/11/27 01:50:05;;;;;;;21.00;13.40;;;2.00;99.90;;;;;;5083721;28;20180;-59
2021/11/27 01:52:31;;;;;;;23.42;14.85;;;1.90;99.90;;;;;;5068655;28;20451;-56
2021/11/27 01:54:57;;;;;;;18.65;13.20;;;1.90;99.90;;;;;;5051674;28;20247;-56
2021/11/27 01:57:23;;;;;;;20.37;13.10;;;1.80;99.90;;;;;;5068010;28;20233;-57
2021/11/27 01:59:49;;;;;;;25.80;14.50;;;1.80;99.90;;;;;;5084031;28;20680;-56
2021/11/27 02:02:16;;;;;;;23.40;14.60;;;1.70;99.90;;;;;;5074877;28;20177;-56
2021/11/27 02:04:43;;;;;;;22.80;14.43;;;1.60;99.90;;;;;;5081373;28;20776;-59
2021/11/27 02:07:09;;;;;;;21.08;12.23;;;1.60;99.90;;;;;;5075621;28;20586;-58
2021/11/27 02:09:37;;;;;;;18.48;12.30;;;1.60;99.90;;;;;;5070621;28;20201;-57
2021/11/27 02:12:07;;;;;;;23.58;13.52;;;1.50;99.90;;;;;;5070195;28;20182;-59
2021/11/27 02:14:33;;;;;;;20.58;12.77;;;1.50;99.90;;;;;;5071052;28;20254;-58
2021/11/27 02:16:59;;;;;;;23.73;13.60;;;1.50;99.90;;;;;;5083238;28;20306;-56
2021/11/27 02:19:25;;;;;;;20.90;13.67;;;1.40;99.90;;;;;;5071360;28;20190;-59
2021/11/27 02:21:51;;;;;;;19.15;12.50;;;1.40;99.90;;;;;;5086537;28;20220;-56
2021/11/27 02:24:19;;;;;;;18.67;12.52;;;1.50;99.90;;;;;;5075697;28;20265;-59
2021/11/27 02:26:47;;;;;;;22.83;12.80;;;1.40;99.90;;;;;;5080672;28;20188;-59
2021/11/27 02:29:19;;;;;;;21.42;13.50;;;1.50;99.90;;;;;;5067837;28;20526;-58
2021/11/27 02:31:45;;;;;;;22.80;13.25;;;1.50;99.90;;;;;;5080801;28;20892;-56
2021/11/27 02:34:12;;;;;;;21.10;14.35;;;1.50;99.90;;;;;;5067790;28;20221;-59
2021/11/27 02:36:41;;;;;;;23.58;14.60;;;1.60;99.90;;;;;;5081449;28;20282;-58
2021/11/27 02:39:10;;;;;;;20.98;13.13;;;1.60;99.90;;;;;;5082312;28;20192;-59
2021/11/27 02:41:36;;;;;;;22.95;13.90;;;1.70;99.90;;;;;;5074613;28;20197;-58
2021/11/27 02:44:02;;;;;;;19.55;13.63;;;1.70;99.90;;;;;;5089377;28;20184;-58
2021/11/27 02:46:28;;;;;;;21.27;13.73;;;1.70;99.90;;;;;;5079817;28;20199;-58
2021/11/27 02:48:54;;;;;;;25.57;15.73;;;1.70;99.90;;;;;;5076475;28;20194;-59
2021/11/27 02:51:20;;;;;;;24.07;14.70;;;1.80;99.90;;;;;;5076163;28;20194;-59
2021/11/27 02:53:46;;;;;;;20.50;13.00;;;1.80;99.90;;;;;;5070914;28;20439;-59
2021/11/27 02:56:12;;;;;;;21.47;13.77;;;1.80;99.90;;;;;;5081074;28;20205;-57
2021/11/27 02:58:38;;;;;;;21.00;13.40;;;1.80;99.90;;;;;;5056706;28;20217;-58
2021/11/27 03:01:06;;;;;;;18.83;12.95;;;1.90;99.90;;;;;;5079640;28;20435;-59
2021/11/27 03:03:37;;;;;;;21.63;13.73;;;1.90;99.90;;;;;;5081743;28;20210;-58
2021/11/27 03:06:04;;;;;;;21.52;14.30;;;1.90;99.90;;;;;;5076962;28;20234;-56
2021/11/27 03:08:30;;;;;;;21.65;13.05;;;1.80;99.90;;;;;;5088417;28;21013;-57
2021/11/27 03:10:57;;;;;;;25.42;14.63;;;1.80;99.90;;;;;;5075313;28;20186;-56
2021/11/27 03:13:27;;;;;;;23.95;13.18;;;1.80;99.90;;;;;;5071539;28;20185;-57
2021/11/27 03:15:52;;;;;;;22.10;13.85;;;1.90;99.90;;;;;;5084745;28;20219;-58
2021/11/27 03:18:19;;;;;;;22.67;14.00;;;1.80;99.90;;;;;;5082226;28;20189;-57
2021/11/27 03:20:44;;;;;;;29.35;16.23;;;1.80;99.90;;;;;;5072580;28;20181;-57
2021/11/27 03:23:10;;;;;;;22.33;14.27;;;1.80;99.90;;;;;;5075802;28;20228;-58
2021/11/27 03:25:36;;;;;;;22.30;13.97;;;1.80;99.90;;;;;;5072137;28;20647;-58
2021/11/27 03:28:01;;;;;;;19.97;13.50;;;1.80;99.90;;;;;;5084173;28;20268;-58
2021/11/27 03:30:27;;;;;;;23.07;13.90;;;1.80;99.90;;;;;;5074373;28;20181;-58
2021/11/27 03:32:53;;;;;;;24.30;14.40;;;1.80;99.90;;;;;;5071852;28;20444;-58
2021/11/27 03:35:19;;;;;;;22.35;14.50;;;1.70;99.90;;;;;;5091819;28;20236;-56
2021/11/27 03:37:46;;;;;;;24.80;13.63;;;1.70;99.90;;;;;;5077124;28;20212;-58
2021/11/27 03:40:12;;;;;;;23.20;14.95;;;1.80;99.90;;;;;;5083694;28;20426;-59
2021/11/27 03:42:38;;;;;;;20.50;13.40;;;1.70;99.90;;;;;;5078322;28;20529;-59
2021/11/27 03:45:08;;;;;;;26.17;15.13;;;1.70;99.90;;;;;;5092517;28;20976;-58
2021/11/27 03:47:34;;;;;;;22.42;14.45;;;1.70;99.90;;;;;;5078240;28;20193;-58
2021/11/27 03:49:59;;;;;;;28.00;14.87;;;1.70;99.90;;;;;;5071020;28;20201;-59
2021/11/27 03:52:25;;;;;;;24.20;13.53;;;1.70;99.90;;;;;;5071534;28;20209;-56
2021/11/27 03:54:51;;;;;;;24.60;14.60;;;1.70;99.90;;;;;;5077656;28;20213;-55
2021/11/27 03:57:17;;;;;;;25.30;14.20;;;1.60;99.90;;;;;;5071317;28;20187;-57
2021/11/27 03:59:44;;;;;;;26.80;15.00;;;1.70;99.90;;;;;;5078191;28;20431;-56
2021/11/27 04:02:10;;;;;;;23.00;14.15;;;1.70;99.90;;;;;;5092114;28;20180;-57
2021/11/27 04:04:38;;;;;;;24.57;14.53;;;1.70;99.90;;;;;;5073759;28;20789;-56
2021/11/27 04:07:05;;;;;;;27.13;15.38;;;1.70;99.90;;;;;;5084675;28;20553;-53
2021/11/27 04:09:32;;;;;;;21.83;13.75;;;1.60;99.90;;;;;;5079719;28;20215;-59
2021/11/27 04:11:58;;;;;;;25.38;15.32;;;1.60;99.90;;;;;;5072967;28;20189;-56
2021/11/27 04:14:24;;;;;;;26.92;16.05;;;1.60;99.90;;;;;;5081945;28;20261;-60
2021/11/27 04:16:50;;;;;;;26.38;14.25;;;1.60;99.90;;;;;;5070351;28;20248;-58
2021/11/27 04:19:16;;;;;;;24.20;15.17;;;1.50;99.90;;;;;;5070842;28;20209;-58
2021/11/27 04:21:42;;;;;;;22.83;14.00;;;1.50;99.90;;;;;;5070973;28;20794;-59
2021/11/27 04:24:07;;;;;;;24.53;14.10;;;1.50;99.90;;;;;;5073989;28;20221;-57
2021/11/27 04:26:33;;;;;;;26.70;15.23;;;1.50;99.90;;;;;;5073422;28;20260;-57
2021/11/27 04:28:59;;;;;;;22.90;13.77;;;1.50;99.90;;;;;;5078575;28;20470;-58
2021/11/27 04:31:25;;;;;;;24.00;13.87;;;1.40;99.90;;;;;;5070684;28;20635;-58
2021/11/27 04:33:51;;;;;;;29.00;15.37;;;1.50;99.90;;;;;;5065134;28;20432;-58
2021/11/27 04:36:18;;;;;;;21.88;13.07;;;1.50;99.90;;;;;;5069650;28;20206;-57
2021/11/27 04:38:44;;;;;;;24.55;14.85;;;1.50;99.90;;;;;;5081039;28;20180;-57
2021/11/27 04:41:10;;;;;;;25.55;15.60;;;1.60;99.90;;;;;;5073928;28;20545;-58
2021/11/27 04:43:36;;;;;;;24.50;14.80;;;1.60;99.90;;;;;;5091264;28;20185;-57
2021/11/27 04:46:02;;;;;;;21.70;14.50;;;1.60;99.90;;;;;;5075397;28;20196;-52
2021/11/27 04:48:29;;;;;;;25.00;14.65;;;1.70;99.90;;;;;;5091364;28;20415;-59
2021/11/27 04:50:55;;;;;;;23.08;14.15;;;1.60;99.90;;;;;;5076397;28;20209;-57
2021/11/27 04:53:21;;;;;;;21.50;14.37;;;1.60;99.90;;;;;;5085145;28;20880;-58
2021/11/27 04:55:46;;;;;;;22.70;14.10;;;1.50;99.90;;;;;;5087676;28;20960;-57
2021/11/27 04:58:12;;;;;;;23.27;14.20;;;1.60;99.90;;;;;;5051882;28;20431;-57
2021/11/27 05:00:44;;;;;;;23.63;13.87;;;1.60;99.90;;;;;;5083362;28;20216;-57
2021/11/27 05:03:09;;;;;;;23.98;14.43;;;1.60;99.90;;;;;;5060179;28;20186;-60
2021/11/27 05:05:36;;;;;;;23.30;15.00;;;1.60;99.90;;;;;;5069201;28;20193;-58
2021/11/27 05:08:02;;;;;;;22.25;14.75;;;1.60;99.90;;;;;;5083275;28;20431;-58
2021/11/27 05:10:28;;;;;;;25.20;15.38;;;1.60;99.90;;;;;;5069772;28;20182;-57
2021/11/27 05:12:54;;;;;;;24.87;14.90;;;1.60;99.90;;;;;;5070345;28;20188;-55
2021/11/27 05:15:20;;;;;;;23.43;14.60;;;1.60;99.90;;;;;;5068065;28;20204;-58
2021/11/27 05:17:46;;;;;;;24.83;14.43;;;1.60;99.90;;;;;;5070561;28;20416;-59
2021/11/27 05:20:11;;;;;;;24.07;14.83;;;1.60;99.90;;;;;;5081167;28;20719;-58
2021/11/27 05:22:38;;;;;;;24.00;15.00;;;1.60;99.90;;;;;;5069940;28;21253;-54
2021/11/27 05:25:06;;;;;;;26.00;15.43;;;1.60;99.90;;;;;;5078078;28;20197;-58
2021/11/27 05:27:32;;;;;;;27.60;15.55;;;1.60;99.90;;;;;;5076531;28;20604;-58
2021/11/27 05:29:58;;;;;;;22.33;15.07;;;1.60;99.90;;;;;;5070626;28;20189;-58
2021/11/27 05:34:49;;;;;;;28.40;16.20;;;1.60;99.90;;;;;;5080148;28;20964;-58
2021/11/27 05:37:16;;;;;;;26.00;15.05;;;1.50;99.90;;;;;;5069959;28;20197;-58
2021/11/27 05:39:43;;;;;;;28.83;17.15;;;1.60;99.90;;;;;;5069528;28;20196;-58
2021/11/27 05:42:10;;;;;;;27.55;15.77;;;1.60;99.90;;;;;;5068820;28;20178;-56
2021/11/27 05:44:36;;;;;;;27.33;16.05;;;1.60;99.90;;;;;;5081450;28;20192;-58
2021/11/27 05:47:01;;;;;;;24.73;15.57;;;1.60;99.90;;;;;;5069559;28;20692;-56
2021/11/27 05:49:27;;;;;;;26.40;15.43;;;1.50;99.90;;;;;;5081007;28;20948;-56
2021/11/27 05:51:53;;;;;;;23.70;14.00;;;1.50;99.90;;;;;;5075701;28;20429;-59
2021/11/27 05:54:18;;;;;;;25.50;14.83;;;1.50;99.90;;;;;;5078276;28;20292;-58
2021/11/27 05:56:45;;;;;;;25.67;15.20;;;1.50;99.90;;;;;;5068545;28;20229;-56
2021/11/27 05:59:10;;;;;;;23.52;15.65;;;1.60;99.90;;;;;;5073718;28;20212;-59
2021/11/27 06:01:36;;;;;;;26.83;15.87;;;1.60;99.90;;;;;;5085557;28;20260;-58
2021/11/27 06:04:01;;;;;;;25.50;14.37;;;1.60;99.90;;;;;;5080948;28;20182;-52
2021/11/27 06:06:27;;;;;;;24.60;14.87;;;1.50;99.90;;;;;;5069009;28;20186;-56
2021/11/27 06:08:53;;;;;;;25.70;14.90;;;1.50;99.90;;;;;;5080443;28;20181;-56
2021/11/27 06:11:19;;;;;;;27.67;15.13;;;1.60;99.90;;;;;;5058524;28;20239;-57
2021/11/27 06:13:44;;;;;;;22.60;13.70;;;1.60;99.90;;;;;;5080393;28;20186;-58
2021/11/27 06:16:10;;;;;;;26.87;15.47;;;1.60;99.90;;;;;;5078665;28;20212;-59
2021/11/27 06:18:36;;;;;;;24.33;14.35;;;1.60;99.90;;;;;;5086678;28;20650;-57
2021/11/27 06:21:03;;;;;;;23.80;14.87;;;1.60;99.90;;;;;;5075070;28;20208;-59
2021/11/27 06:23:29;;;;;;;24.83;14.48;;;1.60;99.90;;;;;;5068695;28;20490;-58
2021/11/27 06:25:56;;;;;;;22.93;15.23;;;1.60;99.90;;;;;;5073923;28;20189;-57
2021/11/27 06:28:22;;;;;;;26.38;15.38;;;1.70;99.90;;;;;;5067438;28;21919;-57
2021/11/27 06:30:48;;;;;;;25.92;15.18;;;1.70;99.90;;;;;;5086641;28;20233;-56
2021/11/27 06:33:13;;;;;;;24.50;14.43;;;1.60;99.90;;;;;;5070879;28;20189;-58
2021/11/27 06:35:39;;;;;;;24.83;14.57;;;1.60;99.90;;;;;;5083790;28;20217;-58
2021/11/27 06:38:05;;;;;;;25.87;15.87;;;1.50;99.90;;;;;;5073280;28;20427;-58
2021/11/27 06:40:31;;;;;;;27.10;15.97;;;1.50;99.90;;;;;;5068865;28;20695;-59
2021/11/27 06:43:00;;;;;;;22.40;14.67;;;1.50;99.90;;;;;;5073040;28;20449;-58
2021/11/27 06:45:26;;;;;;;24.23;14.50;;;1.50;99.90;;;;;;5087650;28;20467;-59
2021/11/27 06:47:52;;;;;;;24.88;14.75;;;1.50;99.90;;;;;;5081884;28;20727;-58
2021/11/27 06:50:18;;;;;;;25.67;15.70;;;1.50;99.90;;;;;;5089367;28;20206;-57
2021/11/27 06:52:43;;;;;;;27.83;15.13;;;1.50;99.90;;;;;;5070047;28;20182;-60
2021/11/27 06:55:09;;;;;;;27.93;15.67;;;1.50;99.90;;;;;;5077620;28;20673;-58
2021/11/27 06:57:35;;;;;;;26.65;15.27;;;1.50;99.90;;;;;;5066931;28;20190;-59
2021/11/27 07:00:03;;;;;;;25.27;14.90;;;1.40;99.90;;;;;;5066251;28;20548;-59
2021/11/27 07:02:28;;;;;;;24.17;15.00;;;1.40;99.90;;;;;;5076028;28;20189;-59
2021/11/27 07:04:54;;;;;;;25.97;14.77;;;1.50;99.90;;;;;;5076603;28;20178;-58
2021/11/27 07:07:20;;;;;;;24.10;14.88;;;1.50;99.90;;;;;;5068055;28;20186;-59
2021/11/27 07:09:46;;;;;;;26.93;15.23;;;1.50;99.90;;;;;;5077803;28;20911;-59
2021/11/27 07:12:11;;;;;;;22.97;14.97;;;1.50;99.90;;;;;;5061281;28;20182;-58
2021/11/27 07:14:37;;;;;;;21.97;13.40;;;1.50;99.90;;;;;;5060595;28;20184;-59
2021/11/27 07:17:03;;;;;;;25.10;16.07;;;1.60;99.90;;;;;;5059806;28;20248;-58
2021/11/27 07:19:32;;;;;;;22.17;14.27;;;1.60;99.90;;;;;;5073435;28;20208;-52
2021/11/27 07:21:58;;;;;;;24.70;14.52;;;1.70;99.90;;;;;;5068116;28;20411;-54
2021/11/27 07:24:24;;;;;;;22.52;12.98;;;1.70;99.90;;;;;;5074939;28;20245;-56
2021/11/27 07:26:49;;;;;;;22.77;12.40;;;1.70;99.90;;;;;;5076173;28;20197;-55
2021/11/27 07:29:15;;;;;;;25.47;13.00;;;1.70;99.90;;;;;;5066001;28;20192;-56
2021/11/27 07:31:41;;;;;;;21.30;12.57;;;1.70;99.90;;;;;;5062336;28;21031;-54
2021/11/27 07:34:07;;;;;;;16.60;11.73;;;1.80;99.90;;;;;;5064234;28;20208;-54
2021/11/27 07:36:33;;;;;;;23.33;14.00;;;1.90;99.90;;;;;;5068200;28;20201;-54
2021/11/27 07:38:58;;;;;;;20.75;12.88;;;2.10;99.90;;;;;;5065721;28;20446;-58
2021/11/27 07:41:24;;;;;;;17.93;12.73;;;2.30;99.90;;;;;;5049325;28;20567;-58
2021/11/27 07:43:50;;;;;;;20.10;12.90;;;2.50;99.90;;;;;;5048467;28;20185;-56
2021/11/27 07:46:18;;;;;;;20.80;12.90;;;2.70;99.90;;;;;;5070356;28;20268;-56
2021/11/27 07:48:43;;;;;;;16.42;11.40;;;2.80;99.90;;;;;;5070147;28;20190;-58
2021/11/27 07:51:09;;;;;;;19.03;12.47;;;3.10;99.90;;;;;;5075126;28;20591;-58
2021/11/27 07:53:36;;;;;;;19.40;11.30;;;3.20;99.90;;;;;;5069214;28;20227;-59
2021/11/27 07:56:02;;;;;;;18.88;12.85;;;3.40;99.90;;;;;;5074357;28;20304;-60
2021/11/27 07:58:28;;;;;;;18.23;11.60;;;3.30;99.90;;;;;;5077660;28;20184;-58
2021/11/27 08:00:53;;;;;;;17.80;11.50;;;3.40;99.90;;;;;;5071907;28;20188;-59
2021/11/27 08:03:19;;;;;;;16.73;11.23;;;3.50;99.90;;;;;;5069543;28;21011;-59
2021/11/27 08:05:45;;;;;;;21.27;13.80;;;3.60;99.90;;;;;;5063655;28;20651;-58
2021/11/27 08:08:10;;;;;;;19.87;12.90;;;3.60;99.90;;;;;;5070485;28;20193;-56
2021/11/27 08:10:36;;;;;;;19.80;13.10;;;3.70;99.90;;;;;;5071015;28;20189;-58
2021/11/27 08:13:02;;;;;;;21.47;12.53;;;3.60;99.90;;;;;;5074853;28;20181;-58
2021/11/27 08:15:27;;;;;;;23.13;13.00;;;3.60;99.90;;;;;;5077265;28;20208;-59
2021/11/27 08:17:53;;;;;;;16.90;12.27;;;3.70;99.90;;;;;;5077725;28;20276;-59
2021/11/27 08:20:19;;;;;;;21.13;13.13;;;3.80;99.90;;;;;;5063788;28;20264;-57
2021/11/27 08:22:46;;;;;;;19.67;13.57;;;3.90;99.90;;;;;;5066631;28;20219;-58
2021/11/27 08:25:12;;;;;;;31.20;21.60;;;3.90;99.90;;;;;;5075276;28;20203;-59
2021/11/27 08:27:38;;;;;;;20.25;15.10;;;4.00;99.90;;;;;;5075723;28;20235;-59
2021/11/27 08:30:07;;;;;;;24.00;16.23;;;4.20;99.90;;;;;;5067746;28;20647;-59
2021/11/27 08:32:33;;;;;;;18.60;13.77;;;4.50;99.90;;;;;;5072884;28;20423;-58
2021/11/27 08:34:59;;;;;;;16.10;12.30;;;4.70;99.90;;;;;;5071730;28;20657;-50
2021/11/27 08:37:25;;;;;;;22.67;14.88;;;5.00;99.90;;;;;;5068914;28;20432;-52
2021/11/27 08:39:51;;;;;;;18.73;13.13;;;5.10;99.90;;;;;;5072539;28;20185;-54
2021/11/27 08:42:21;;;;;;;17.10;12.80;;;5.20;99.90;;;;;;5067236;28;20428;-55
2021/11/27 08:44:48;;;;;;;17.55;13.40;;;5.30;99.90;;;;;;5052243;28;20188;-53
2021/11/27 08:47:14;;;;;;;17.35;13.48;;;5.50;99.90;;;;;;5076646;28;21087;-52
2021/11/27 08:49:40;;;;;;;17.50;13.60;;;5.50;99.90;;;;;;5071723;28;20196;-53
2021/11/27 08:52:06;;;;;;;17.60;12.88;;;5.50;99.90;;;;;;5067892;28;20177;-51
2021/11/27 08:54:32;;;;;;;18.38;12.98;;;5.50;99.90;;;;;;5053161;28;21107;-54
2021/11/27 08:56:58;;;;;;;15.97;12.87;;;5.70;99.90;;;;;;5066855;28;20202;-55
2021/11/27 08:59:24;;;;;;;19.63;14.83;;;5.70;99.90;;;;;;5070184;28;20395;-53
2021/11/27 09:01:53;;;;;;;19.13;14.20;;;5.80;99.90;;;;;;5069015;28;20211;-55
2021/11/27 09:04:19;;;;;;;18.05;13.32;;;5.90;99.90;;;;;;5073103;28;20615;-51
2021/11/27 09:06:45;;;;;;;21.83;14.45;;;6.00;99.90;;;;;;5072983;28;20196;-51
2021/11/27 09:09:11;;;;;;;18.17;13.88;;;6.00;99.90;;;;;;5073838;28;20191;-55
2021/11/27 09:11:38;;;;;;;18.55;13.15;;;6.00;99.90;;;;;;5064248;28;20290;-55
2021/11/27 09:14:06;;;;;;;16.75;12.20;;;5.90;99.90;;;;;;5070508;28;20670;-54
2021/11/27 09:16:32;;;;;;;19.17;14.35;;;5.80;99.90;;;;;;5072508;28;20274;-55
2021/11/27 09:18:58;;;;;;;17.65;13.13;;;5.70;99.90;;;;;;5075625;28;20184;-52
2021/11/27 09:21:24;;;;;;;20.10;13.60;;;5.50;99.90;;;;;;5076737;28;20243;-54
2021/11/27 09:23:50;;;;;;;20.30;13.43;;;5.60;99.90;;;;;;5076990;28;20338;-53
2021/11/27 09:26:16;;;;;;;19.20;14.47;;;5.50;99.90;;;;;;5073097;28;20177;-52
2021/11/27 09:28:42;;;;;;;18.17;12.80;;;5.30;99.90;;;;;;5067506;28;20185;-55
2021/11/27 09:31:08;;;;;;;16.90;13.68;;;5.30;99.90;;;;;;5062449;28;20574;-53
2021/11/27 09:33:34;;;;;;;17.87;13.53;;;5.20;99.90;;;;;;5071416;28;20516;-50
2021/11/27 09:36:05;;;;;;;18.97;12.50;;;5.10;99.90;;;;;;5062294;28;20460;-52
2021/11/27 09:38:32;;;;;;;18.33;13.00;;;5.30;99.90;;;;;;5058252;28;20185;-58
2021/11/27 09:41:25;;;;;;;17.95;13.10;;;5.30;99.90;;;;;;5059969;28;20192;-52
2021/11/27 09:43:53;;;;;;;20.23;13.70;;;5.20;99.90;;;;;;5055493;28;20189;-55
2021/11/27 09:46:20;;;;;;;19.42;13.80;;;5.10;99.90;;;;;;5069541;28;20181;-54
2021/11/27 09:48:51;;;;;;;19.00;12.00;;;5.10;99.90;;;;;;5066014;28;20177;-57
2021/11/27 09:51:18;;;;;;;20.85;13.52;;;5.20;99.90;;;;;;5072676;28;20225;-55
2021/11/27 09:53:45;;;;;;;19.20;12.80;;;5.20;99.90;;;;;;5071645;28;20204;-50
2021/11/27 09:56:12;;;;;;;17.67;12.30;;;5.20;99.90;;;;;;5070524;28;20201;-49
2021/11/27 09:58:38;;;;;;;16.67;12.75;;;5.10;99.90;;;;;;5069838;28;20181;-50
2021/11/27 10:01:06;;;;;;;19.87;13.17;;;5.10;99.90;;;;;;5065719;28;20178;-53
2021/11/27 10:03:32;;;;;;;18.95;13.18;;;5.10;99.90;;;;;;5067066;28;20213;-54
2021/11/27 10:05:58;;;;;;;19.20;13.43;;;5.20;99.90;;;;;;5067336;28;20182;-50
2021/11/27 10:08:25;;;;;;;17.13;13.57;;;5.30;99.90;;;;;;5057014;28;20272;-49
2021/11/27 10:10:51;;;;;;;19.35;13.50;;;5.20;99.90;;;;;;5064417;28;20808;-53
2021/11/27 10:13:19;;;;;;;18.17;13.75;;;5.40;99.90;;;;;;5062205;28;20190;-55
2021/11/27 10:15:45;;;;;;;19.60;13.27;;;5.40;99.90;;;;;;5062114;28;20308;-50
2021/11/27 10:18:22;;;;;;;17.03;12.50;;;5.50;99.90;;;;;;5052567;28;20248;-52
2021/11/27 10:21:07;;;;;;;16.67;11.98;;;5.70;99.90;;;;;;5061725;28;20421;-52
2021/11/27 10:23:33;;;;;;;18.42;12.43;;;5.70;99.90;;;;;;5065579;28;20228;-53
2021/11/27 10:25:59;;;;;;;22.00;13.30;;;5.70;99.90;;;;;;5063890;28;20182;-53
2021/11/27 10:28:28;;;;;;;17.97;13.30;;;5.70;99.90;;;;;;5066931;28;20541;-50
2021/11/27 10:31:01;;;;;;;14.48;11.80;;;5.70;99.90;;;;;;5061975;28;20669;-54
2021/11/27 10:33:27;;;;;;;16.42;12.55;;;5.60;99.90;;;;;;5062629;28;20188;-50
2021/11/27 10:35:54;;;;;;;18.67;13.55;;;5.60;99.90;;;;;;5072437;28;20220;-55
2021/11/27 10:38:20;;;;;;;17.27;12.77;;;5.50;99.90;;;;;;5070413;28;20186;-49
2021/11/27 10:40:58;;;;;;;16.93;12.37;;;5.60;99.90;;;;;;5075079;28;20176;-53
2021/11/27 10:43:24;;;;;;;15.68;12.35;;;5.70;99.90;;;;;;5072290;28;20184;-55
2021/11/27 10:45:50;;;;;;;18.60;13.57;;;5.80;99.90;;;;;;5067206;28;20189;-55
2021/11/27 10:48:20;;;;;;;15.17;12.50;;;5.80;99.90;;;;;;5048621;28;20181;-53
2021/11/27 10:50:52;;;;;;;15.30;12.10;;;5.90;99.90;;;;;;5066763;28;20182;-55
2021/11/27 10:53:26;;;;;;;16.17;12.77;;;6.00;99.90;;;;;;5056044;28;20181;-53
2021/11/27 10:55:52;;;;;;;17.48;12.85;;;5.90;99.90;;;;;;5067543;28;20206;-53
2021/11/27 10:58:18;;;;;;;15.23;12.17;;;5.80;99.90;;;;;;5079968;28;20239;-51
2021/11/27 11:00:49;;;;;;;13.13;11.70;;;5.70;99.90;;;;;;5072496;28;20439;-53
2021/11/27 11:03:31;;;;;;;21.02;13.35;;;5.80;99.90;;;;;;5061728;28;20177;-55
2021/11/27 11:06:00;;;;;;;16.80;13.43;;;5.70;99.90;;;;;;5071417;28;20884;-52
2021/11/27 11:08:40;;;;;;;17.90;13.80;;;5.80;99.90;;;;;;5064721;28;20189;-52
2021/11/27 11:11:26;;;;;;;16.17;12.75;;;5.70;99.90;;;;;;5064020;28;20181;-49
2021/11/27 11:13:57;;;;;;;18.13;14.15;;;5.70;99.90;;;;;;5072001;28;20206;-54
2021/11/27 11:16:28;;;;;;;19.75;13.73;;;5.60;99.90;;;;;;5073856;28;20213;-54
2021/11/27 11:19:15;;;;;;;18.02;13.30;;;5.60;99.90;;;;;;5069934;28;20177;-52
2021/11/27 11:22:10;;;;;;;19.95;14.55;;;5.60;99.90;;;;;;5063101;28;20654;-53
2021/11/27 11:24:37;;;;;;;18.02;13.15;;;5.60;99.90;;;;;;5068297;28;20177;-54
2021/11/27 11:27:07;;;;;;;16.88;12.85;;;5.70;99.90;;;;;;5063696;28;20687;-52
2021/11/27 11:29:45;;;;;;;21.10;13.70;;;5.70;99.90;;;;;;5070139;28;20199;-51
2021/11/27 11:32:18;;;;;;;19.95;13.57;;;5.70;99.90;;;;;;5078015;28;20310;-51
2021/11/27 11:34:45;;;;;;;18.25;13.00;;;5.60;99.90;;;;;;5080421;28;20693;-51
2021/11/27 11:37:11;;;;;;;20.42;14.18;;;5.70;99.90;;;;;;5069176;28;20770;-54
2021/11/27 11:39:40;;;;;;;18.77;13.60;;;5.70;99.90;;;;;;5065245;28;20178;-54
2021/11/27 11:42:07;;;;;;;17.60;14.35;;;5.60;99.90;;;;;;5070879;28;20174;-54
2021/11/27 11:44:34;;;;;;;19.58;13.85;;;5.60;99.90;;;;;;5079534;28;20185;-55
2021/11/27 11:47:01;;;;;;;18.08;13.43;;;5.60;99.90;;;;;;5078445;28;20259;-50
2021/11/27 11:49:27;;;;;;;15.70;12.77;;;5.50;99.90;;;;;;5070750;28;20178;-50
2021/11/27 11:52:38;;;;;;;16.55;13.30;;;5.50;99.90;;;;;;5084054;28;20517;-52
2021/11/27 11:55:11;;;;;;;14.77;12.15;;;5.40;99.90;;;;;;5013889;28;20218;-53
2021/11/27 11:57:54;;;;;;;16.42;12.15;;;5.30;99.90;;;;;;4995902;28;20188;-54
2021/11/27 12:00:33;;;;;;;17.50;13.35;;;5.30;99.90;;;;;;5006949;28;20291;-52
2021/11/27 12:03:11;;;;;;;15.43;12.40;;;5.20;99.90;;;;;;5016409;28;20186;-49
2021/11/27 12:06:02;;;;;;;19.70;14.02;;;5.20;99.90;;;;;;5014208;28;20999;-51
2021/11/27 12:08:49;;;;;;;17.75;13.23;;;5.20;99.90;;;;;;5005792;28;20198;-53
2021/11/27 12:11:39;;;;;;;23.83;18.55;;;5.20;99.90;;;;;;5005844;28;20191;-54
2021/11/27 12:14:26;;;;;;;18.08;13.95;;;5.10;99.90;;;;;;5001354;28;20219;-50
2021/11/27 12:17:01;;;;;;;31.23;24.67;;;5.10;99.90;;;;;;4997344;28;20684;-52
2021/11/27 12:19:40;;;;;;;17.75;13.80;;;5.10;99.90;;;;;;5006269;28;20966;-53
2021/11/27 12:22:23;;;;;;;18.15;13.50;;;5.20;99.90;;;;;;5004047;28;20223;-54
2021/11/27 12:25:24;;;;;;;17.17;14.07;;;5.20;99.90;;;;;;5010956;28;20210;-52
2021/11/27 12:28:02;;;;;;;18.40;13.18;;;5.20;99.90;;;;;;5069188;28;20273;-53
2021/11/27 12:30:51;;;;;;;18.15;13.25;;;5.30;99.90;;;;;;5060417;28;21934;-53
2021/11/27 12:33:40;;;;;;;18.80;13.48;;;5.30;99.90;;;;;;5046268;28;20190;-53
2021/11/27 12:36:06;;;;;;;18.30;13.18;;;5.40;99.90;;;;;;5063088;28;20217;-47
2021/11/27 12:38:32;;;;;;;15.80;12.20;;;5.40;99.90;;;;;;5064727;28;20190;-54
2021/11/27 12:40:59;;;;;;;17.33;13.43;;;5.50;99.90;;;;;;5070858;28;20190;-54
2021/11/27 12:43:26;;;;;;;16.35;13.15;;;5.60;99.90;;;;;;5069157;28;20193;-53